Time;durP1;ratioP1;P1;durP2;ratioP2;P2;SDS_P1;SDS_P2;PMS_P1;PMS_P2;Temp;Humidity;BMP_temperature;BMP_pressure;BME280_temperature;BME280_humidity;BME280_pressure;Samples;Min_cycle;Max_cycle;Signal;HPM_P1;HPM_P2
2022/06/13 00:00:34;;;;;;;10.45;3.05;;;;;;;19.77;60.20;100021.39;1880370;76;21043;-59
2022/06/13 00:03:03;;;;;;;11.28;3.72;;;;;;;19.70;60.78;100025.09;1880368;76;21154;-59
2022/06/13 00:05:32;;;;;;;7.97;2.92;;;;;;;19.62;61.11;100023.10;1880416;76;21470;-59
2022/06/13 00:08:01;;;;;;;14.28;3.98;;;;;;;19.58;61.41;100024.33;1880324;76;21039;-59
2022/06/13 00:10:29;;;;;;;10.90;4.17;;;;;;;19.52;61.36;100020.88;1880309;76;21055;-59
2022/06/13 00:12:58;;;;;;;11.93;3.10;;;;;;;19.43;62.07;100023.02;1880369;76;21015;-59
2022/06/13 00:15:27;;;;;;;9.20;3.25;;;;;;;19.28;62.09;100022.03;1880306;76;21102;-60
2022/06/13 00:17:55;;;;;;;8.85;3.52;;;;;;;19.17;62.71;100020.80;1880317;76;21121;-59
2022/06/13 00:20:24;;;;;;;11.83;3.00;;;;;;;19.09;62.88;100020.13;1880332;76;21042;-59
2022/06/13 00:22:52;;;;;;;12.33;4.08;;;;;;;19.03;62.86;100025.13;1880318;76;21007;-59
2022/06/13 00:25:22;;;;;;;8.80;3.98;;;;;;;18.96;63.27;100016.83;1880303;76;21039;-59
2022/06/13 00:27:51;;;;;;;10.75;4.58;;;;;;;18.86;64.17;100016.75;1880254;76;21555;-59
2022/06/13 00:30:19;;;;;;;9.83;4.20;;;;;;;18.78;64.55;100015.20;1880420;76;21104;-59
2022/06/13 00:32:48;;;;;;;13.83;4.25;;;;;;;18.69;65.08;100014.66;1880393;76;21113;-59
2022/06/13 00:35:18;;;;;;;11.45;4.90;;;;;;;18.61;65.44;100011.77;1880273;76;21156;-59
2022/06/13 00:37:47;;;;;;;7.00;3.90;;;;;;;18.56;65.75;100014.00;1880350;76;21481;-59
2022/06/13 00:40:15;;;;;;;8.63;3.70;;;;;;;18.49;66.07;100009.17;1880298;76;21098;-59
2022/06/13 00:42:46;;;;;;;5.50;3.27;;;;;;;18.46;66.26;100013.45;1900127;74;21161;-59
2022/06/13 00:45:26;;;;;;;7.33;3.20;;;;;;;18.45;66.22;100010.41;1927430;74;21050;-59
2022/06/13 00:47:56;;;;;;;5.17;3.00;;;;;;;18.44;66.12;100008.73;1927398;74;21066;-59
2022/06/13 00:50:27;;;;;;;6.12;3.08;;;;;;;18.41;65.88;99999.65;1927439;74;21479;-59
2022/06/13 00:53:01;;;;;;;7.03;3.60;;;;;;;18.38;65.92;99997.73;1924354;74;21544;-60
2022/06/13 00:55:36;;;;;;;9.18;3.33;;;;;;;18.31;65.91;99991.59;1924144;74;21466;-59
2022/06/13 00:58:05;;;;;;;5.28;3.30;;;;;;;18.28;66.06;100001.16;1923901;74;21027;-59
2022/06/13 01:00:36;;;;;;;14.87;3.77;;;;;;;18.22;66.79;99999.48;1923982;74;21466;-59
2022/06/13 01:03:06;;;;;;;12.18;3.95;;;;;;;18.11;67.95;100007.02;1924091;74;21497;-59
2022/06/13 01:05:40;;;;;;;6.25;3.80;;;;;;;17.98;68.67;100012.50;1923781;74;21527;-60
2022/06/13 01:08:11;;;;;;;6.25;3.70;;;;;;;17.78;70.09;100011.45;1923825;74;21031;-59
2022/06/13 01:13:40;;;;;;;9.30;3.75;;;;;;;17.58;70.42;100023.70;1923907;74;21023;-59
2022/06/13 01:16:26;;;;;;;9.20;3.72;;;;;;;17.46;71.00;100028.17;1923835;74;21109;-59
2022/06/13 01:19:03;;;;;;;8.55;3.40;;;;;;;17.36;71.67;100026.72;1923606;74;21788;-59
2022/06/13 01:21:52;;;;;;;6.75;3.77;;;;;;;17.29;71.69;100038.81;1923998;74;21010;-59
2022/06/13 01:24:40;;;;;;;7.72;3.33;;;;;;;17.34;71.21;100034.48;1923886;74;21108;-59
2022/06/13 01:27:36;;;;;;;10.20;3.55;;;;;;;17.39;70.91;100036.77;1923977;74;21027;-59
2022/06/13 01:30:13;;;;;;;5.00;2.80;;;;;;;17.43;70.61;100039.53;1900714;74;21047;-59
2022/06/13 01:32:57;;;;;;;9.60;3.55;;;;;;;17.45;70.24;100039.80;1923400;74;21038;-59
2022/06/13 01:35:26;;;;;;;;;;;;;;;17.48;69.97;100044.02;1925793;74;21035;-59
2022/06/13 01:38:19;;;;;;;6.10;3.80;;;;;;;17.49;69.86;100039.91;1923927;74;20102;-59
2022/06/13 01:40:56;;;;;;;7.45;3.30;;;;;;;17.50;69.81;100044.74;1924105;74;21094;-59
2022/06/13 01:43:36;;;;;;;7.22;3.47;;;;;;;17.52;69.77;100054.78;1917379;74;21157;-59
2022/06/13 01:46:20;;;;;;;6.45;3.22;;;;;;;17.51;70.15;100054.44;1911127;75;21058;-59
2022/06/13 01:48:54;;;;;;;13.60;4.08;;;;;;;17.50;70.20;100052.72;1888830;75;21129;-59
2022/06/13 01:51:26;;;;;;;8.93;3.35;;;;;;;17.52;69.92;100056.11;1900494;75;21478;-60
2022/06/13 01:54:09;;;;;;;6.15;4.17;;;;;;;17.49;70.44;100051.89;1898134;75;21118;-59
2022/06/13 01:56:46;;;;;;;8.35;3.47;;;;;;;17.47;70.43;100054.32;1898390;75;21040;-59
2022/06/13 01:59:18;;;;;;;6.40;3.67;;;;;;;17.44;70.72;100050.56;1898381;75;21118;-59
2022/06/13 02:01:49;;;;;;;4.72;3.35;;;;;;;17.43;70.55;100063.48;1897111;75;21348;-60
2022/06/13 02:04:36;;;;;;;4.62;3.02;;;;;;;17.38;70.70;100064.36;1897680;75;21040;-59
2022/06/13 02:07:10;;;;;;;11.57;3.10;;;;;;;17.32;71.03;100061.20;1898229;75;21044;-59
2022/06/13 02:09:44;;;;;;;8.88;3.52;;;;;;;17.32;71.04;100066.52;1898186;75;21133;-61
2022/06/13 02:12:15;;;;;;;8.58;3.05;;;;;;;17.34;70.89;100065.91;1896624;75;21510;-59
2022/06/13 02:14:55;;;;;;;7.65;3.47;;;;;;;17.40;70.82;100059.76;1898245;75;21529;-59
2022/06/13 02:17:27;;;;;;;6.60;3.20;;;;;;;17.45;70.67;100057.59;1898175;75;21138;-59
2022/06/13 02:19:58;;;;;;;6.33;3.55;;;;;;;17.47;70.59;100056.98;1898160;75;21447;-59
2022/06/13 02:22:36;;;;;;;7.92;3.42;;;;;;;17.48;70.71;100056.00;1898439;75;21143;-59
2022/06/13 02:25:19;;;;;;;7.08;3.17;;;;;;;17.51;70.49;100061.09;1890883;75;21193;-59
2022/06/13 02:27:48;;;;;;;;;;;;;;;17.58;70.44;100066.30;1901156;75;21043;-59
2022/06/13 02:30:20;;;;;;;4.95;3.30;;;;;;;17.61;70.85;100067.36;1898050;75;20476;-59
2022/06/13 02:32:57;;;;;;;10.75;3.33;;;;;;;17.66;70.56;100073.17;1898227;75;21121;-60
2022/06/13 02:35:29;;;;;;;7.05;2.77;;;;;;;17.79;70.64;100066.88;1897044;75;21119;-59
2022/06/13 02:38:07;;;;;;;12.75;3.55;;;;;;;17.96;70.58;100069.05;1898286;75;21067;-59
2022/06/13 02:40:48;;;;;;;4.35;2.58;;;;;;;18.11;70.61;100061.17;1897332;75;21505;-59
2022/06/13 02:43:34;;;;;;;5.45;3.30;;;;;;;18.19;70.65;100065.03;1898256;74;21071;-59
2022/06/13 02:46:06;;;;;;;7.72;3.30;;;;;;;18.20;70.70;100070.70;1898220;75;21133;-59
2022/06/13 02:48:41;;;;;;;9.08;2.95;;;;;;;18.18;70.86;100081.48;1897927;75;21121;-59
2022/06/13 02:51:38;;;;;;;5.20;3.30;;;;;;;18.20;70.88;100086.69;1891026;74;21026;-60
2022/06/13 02:54:13;;;;;;;7.87;2.90;;;;;;;18.35;70.57;100094.75;1891582;74;22351;-64
2022/06/13 03:00:05;;;;;;;4.92;3.60;;;;;;;18.50;69.57;100098.84;1897292;75;21494;-64
2022/06/13 03:02:40;;;;;;;7.33;3.02;;;;;;;18.52;69.42;100100.05;1894366;75;21675;-68
2022/06/13 03:05:11;;;;;;;6.08;3.10;;;;;;;18.55;69.55;100084.28;1863159;75;21038;-64
2022/06/13 03:07:43;;;;;;;7.83;3.83;;;;;;;18.63;69.63;100084.02;1892357;75;21040;-65
2022/06/13 03:10:17;;;;;;;7.83;3.25;;;;;;;18.80;69.70;100082.59;1892635;75;21047;-62
2022/06/13 03:12:58;;;;;;;7.58;2.87;;;;;;;19.00;69.51;100090.78;1893933;75;21239;-60
2022/06/13 03:15:44;;;;;;;8.63;2.77;;;;;;;19.10;69.20;100103.68;1896385;75;21105;-66
2022/06/13 03:18:16;;;;;;;7.72;3.45;;;;;;;19.24;68.84;100099.84;1865271;73;21165;-65
2022/06/13 03:20:50;;;;;;;28.30;7.25;;;;;;;19.52;68.92;100103.64;1893333;75;21039;-63
2022/06/13 03:23:31;;;;;;;25.90;8.58;;;;;;;19.89;69.10;100117.81;1869280;75;21038;-67
2022/06/13 03:26:05;;;;;;;14.50;5.25;;;;;;;20.19;68.73;100117.41;1848138;78;21505;-63
2022/06/13 03:28:55;;;;;;;14.03;4.85;;;;;;;20.44;68.43;100124.92;1848145;78;21112;-66
2022/06/13 03:31:29;;;;;;;9.78;4.15;;;;;;;20.77;68.46;100117.52;1847981;77;21501;-66
2022/06/13 03:34:01;;;;;;;9.45;3.30;;;;;;;21.18;68.51;100115.50;1847275;78;21167;-66
2022/06/13 03:36:41;;;;;;;8.13;3.52;;;;;;;21.54;67.92;100110.85;1848098;78;21097;-65
2022/06/13 03:39:30;;;;;;;4.85;2.70;;;;;;;21.89;67.39;100114.19;1848105;77;21133;-63
2022/06/13 03:42:01;;;;;;;10.08;2.85;;;;;;;22.25;66.76;100121.47;1847875;77;21533;-64
2022/06/13 03:44:33;;;;;;;6.90;2.58;;;;;;;22.58;66.04;100113.80;1847829;75;21078;-60
2022/06/13 03:47:04;;;;;;;6.30;4.12;;;;;;;22.77;65.15;100114.97;1897668;75;21115;-60
2022/06/13 03:49:48;;;;;;;18.45;7.95;;;;;;;22.97;64.29;100116.16;1898231;75;21451;-60
2022/06/13 03:52:18;;;;;;;18.35;7.08;;;;;;;23.16;63.52;100123.20;1898177;75;21048;-62
2022/06/13 03:54:50;;;;;;;16.65;7.97;;;;;;;23.31;62.93;100118.94;1898312;75;21098;-62
2022/06/13 03:57:27;;;;;;;14.85;7.83;;;;;;;23.30;62.07;100123.98;1898477;75;21095;-63
2022/06/13 03:59:59;;;;;;;11.83;6.33;;;;;;;23.27;61.41;100122.94;1879039;75;21051;-62
2022/06/13 04:02:33;;;;;;;14.10;5.65;;;;;;;23.29;60.97;100115.09;1894856;75;21091;-62
2022/06/13 04:05:01;;;;;;;13.48;5.90;;;;;;;23.29;60.51;100123.62;1898236;75;21040;-62
2022/06/13 04:07:33;;;;;;;18.10;7.78;;;;;;;23.15;60.06;100124.19;1898226;75;21036;-62
2022/06/13 04:10:07;;;;;;;16.20;7.08;;;;;;;23.04;59.73;100131.51;1898201;75;21012;-64
2022/06/13 04:13:00;;;;;;;16.17;8.85;;;;;;;23.01;59.47;100131.78;1897272;74;21038;-63
2022/06/13 04:15:59;;;;;;;20.47;9.00;;;;;;;22.99;59.30;100133.78;1898648;75;21130;-63
2022/06/13 04:18:42;;;;;;;20.08;8.35;;;;;;;22.99;59.10;100142.34;1898252;75;21150;-63
2022/06/13 04:21:17;;;;;;;;;;;;;;;22.94;58.86;100141.45;1901209;75;21047;-64
2022/06/13 04:24:01;;;;;;;19.23;5.60;;;;;;;22.92;58.87;100146.13;1897492;74;20115;-63
2022/06/13 04:26:54;;;;;;;5.17;3.42;;;;;;;22.93;58.70;100157.23;1897774;75;21117;-60
2022/06/13 04:29:26;;;;;;;9.68;3.37;;;;;;;22.97;58.57;100153.23;1898427;75;21079;-60
2022/06/13 04:31:57;;;;;;;10.20;3.33;;;;;;;22.98;58.32;100159.43;1898223;75;21016;-61
2022/06/13 04:34:29;;;;;;;10.25;4.08;;;;;;;23.00;58.16;100159.64;1898473;75;21012;-61
2022/06/13 04:36:59;;;;;;;12.80;3.98;;;;;;;23.00;58.07;100163.67;1898225;75;21079;-60
2022/06/13 04:39:31;;;;;;;8.93;2.90;;;;;;;23.05;58.00;100163.22;1898385;75;21930;-60
2022/06/13 04:42:02;;;;;;;9.38;3.50;;;;;;;23.11;57.92;100164.80;1898274;75;21494;-60
2022/06/13 04:44:33;;;;;;;12.47;3.80;;;;;;;23.25;57.94;100166.58;1894764;75;21075;-60
2022/06/13 04:47:04;;;;;;;11.80;3.72;;;;;;;23.34;57.92;100161.61;1880369;76;21497;-60
2022/06/13 04:49:47;;;;;;;14.25;3.60;;;;;;;23.35;57.83;100161.96;1880411;76;21011;-60
2022/06/13 04:52:19;;;;;;;13.88;3.92;;;;;;;23.45;57.69;100166.72;1877894;74;21075;-60
2022/06/13 04:54:55;;;;;;;10.30;3.62;;;;;;;23.53;57.60;100174.50;1880256;76;21474;-61
2022/06/13 04:57:23;;;;;;;6.92;3.27;;;;;;;23.58;57.39;100173.53;1880248;76;21525;-60
2022/06/13 04:59:52;;;;;;;11.28;3.90;;;;;;;23.60;57.26;100176.89;1880301;76;21051;-60
2022/06/13 05:02:24;;;;;;;9.25;3.80;;;;;;;23.59;57.15;100172.51;1880295;76;21047;-59
2022/06/13 05:04:53;;;;;;;7.80;2.62;;;;;;;23.54;56.97;100166.28;1880307;76;21407;-59
2022/06/13 05:07:23;;;;;;;6.12;2.83;;;;;;;23.56;56.85;100170.16;1880455;76;21447;-61
2022/06/13 05:09:55;;;;;;;7.10;3.50;;;;;;;23.59;56.92;100173.85;1880388;76;21169;-59
2022/06/13 05:12:32;;;;;;;8.23;2.27;;;;;;;23.69;56.83;100175.95;1880396;76;21474;-59
2022/06/13 05:15:07;;;;;;;7.17;2.70;;;;;;;23.74;56.45;100175.45;1880278;75;21180;-59
2022/06/13 05:17:53;;;;;;;13.53;2.50;;;;;;;23.77;55.93;100181.36;1880292;76;21477;-59
2022/06/13 05:20:48;;;;;;;15.98;4.20;;;;;;;23.83;55.50;100186.15;1880251;76;21497;-59
2022/06/13 05:23:42;;;;;;;11.45;2.67;;;;;;;23.83;54.85;100185.28;1880431;76;21531;-59
2022/06/13 05:26:11;;;;;;;10.90;2.70;;;;;;;23.84;54.42;100182.44;1880181;76;21544;-61
2022/06/13 05:28:40;;;;;;;12.63;2.58;;;;;;;23.90;53.87;100176.92;1880255;76;21039;-60
2022/06/13 05:31:19;;;;;;;16.90;2.52;;;;;;;23.91;53.23;100177.28;1880277;76;21130;-60
2022/06/13 05:33:49;;;;;;;6.03;2.27;;;;;;;23.91;52.99;100177.78;1880303;76;21015;-60
2022/06/13 05:36:21;;;;;;;8.05;3.02;;;;;;;24.00;53.04;100170.94;1880344;76;21097;-60
2022/06/13 05:38:52;;;;;;;8.03;2.45;;;;;;;24.12;52.78;100176.86;1880242;76;21035;-60
2022/06/13 05:41:21;;;;;;;8.33;2.02;;;;;;;24.28;52.49;100185.00;1880075;76;21011;-64
2022/06/13 05:43:50;;;;;;;4.65;1.87;;;;;;;24.42;52.31;100179.98;1880298;76;21011;-59
2022/06/13 05:46:25;;;;;;;4.35;1.82;;;;;;;24.60;52.03;100186.13;1888353;75;21579;-59
2022/06/13 05:48:54;;;;;;;3.80;1.80;;;;;;;24.81;51.53;100195.62;1891306;76;21034;-59
2022/06/13 05:51:23;;;;;;;7.47;2.05;;;;;;;24.98;50.72;100192.44;1880164;76;21643;-60
2022/06/13 05:53:52;;;;;;;6.70;2.60;;;;;;;25.11;50.60;100193.29;1880358;76;21109;-64
2022/06/13 05:56:21;;;;;;;15.25;3.20;;;;;;;25.40;50.34;100196.34;1880293;76;21536;-66
2022/06/13 05:58:50;;;;;;;4.60;2.40;;;;;;;25.81;49.97;100192.22;1880305;76;21047;-65
2022/06/13 06:01:19;;;;;;;7.78;3.15;;;;;;;26.40;49.94;100189.67;1880268;76;21144;-67
2022/06/13 06:03:48;;;;;;;9.83;2.98;;;;;;;26.62;49.38;100195.34;1880077;76;21490;-67
2022/06/13 06:06:26;;;;;;;14.00;2.50;;;;;;;26.76;49.38;100199.95;1880239;76;21043;-68
2022/06/13 06:08:55;;;;;;;5.05;2.10;;;;;;;27.02;48.99;100201.47;1880217;76;21112;-68
2022/06/13 06:11:25;;;;;;;13.18;2.85;;;;;;;27.41;48.36;100204.55;1880232;76;21493;-69
2022/06/13 06:13:54;;;;;;;9.03;3.10;;;;;;;27.67;48.02;100200.93;1880341;76;21474;-67
2022/06/13 06:16:25;;;;;;;10.58;2.62;;;;;;;27.96;47.80;100202.51;1880120;76;21110;-63
2022/06/13 06:18:55;;;;;;;7.87;1.98;;;;;;;28.19;47.46;100207.83;1880353;76;21093;-63
2022/06/13 06:21:24;;;;;;;6.90;2.37;;;;;;;28.59;47.07;100206.49;1880264;76;21129;-62
2022/06/13 06:23:52;;;;;;;14.78;2.37;;;;;;;28.82;46.13;100209.02;1880274;76;21498;-68
2022/06/13 06:26:25;;;;;;;12.03;2.95;;;;;;;29.37;45.87;100210.72;1880161;76;21043;-70
2022/06/13 06:28:54;;;;;;;;;;;;;;;29.71;44.54;100212.33;1882939;76;21108;-70
2022/06/13 06:31:22;;;;;;;13.78;2.98;;;;;;;29.97;43.78;100207.12;1880217;76;20117;-70
2022/06/13 06:33:51;;;;;;;12.35;2.10;;;;;;;30.60;43.44;100217.03;1880282;76;21121;-69
2022/06/13 06:36:20;;;;;;;5.95;1.65;;;;;;;31.18;42.93;100218.73;1880223;76;21557;-65
2022/06/13 06:38:49;;;;;;;8.45;1.45;;;;;;;31.62;41.95;100217.00;1880181;76;21039;-67
2022/06/13 06:41:18;;;;;;;10.13;2.15;;;;;;;31.48;38.17;100220.23;1880056;76;21039;-65
2022/06/13 06:43:46;;;;;;;8.33;3.00;;;;;;;31.39;37.68;100223.66;1880263;76;21113;-67
2022/06/13 06:46:16;;;;;;;7.87;1.60;;;;;;;31.37;37.32;100220.31;1880218;74;21079;-66
2022/06/13 06:48:45;;;;;;;2.42;1.05;;;;;;;31.34;36.31;100224.83;1880215;76;21035;-66
2022/06/13 06:51:15;;;;;;;6.60;1.75;;;;;;;31.32;35.54;100226.92;1880200;76;21031;-65
2022/06/13 07:01:58;;;;;;;4.50;1.47;;;;;;;30.36;34.05;100227.88;1880083;76;21027;-68
2022/06/13 07:04:27;;;;;;;9.48;1.98;;;;;;;29.79;34.68;100229.33;1880108;76;21105;-67
2022/06/13 07:06:56;;;;;;;3.55;1.45;;;;;;;29.97;34.95;100237.47;1880168;75;21517;-67
2022/06/13 07:09:24;;;;;;;9.50;1.80;;;;;;;29.86;34.62;100232.59;1880145;76;21097;-68
2022/06/13 07:11:56;;;;;;;2.92;0.95;;;;;;;29.87;34.20;100229.69;1880152;76;21031;-63
2022/06/13 07:14:33;;;;;;;7.53;1.80;;;;;;;30.31;34.41;100224.40;1880340;76;21011;-64
2022/06/13 07:17:05;;;;;;;7.75;1.25;;;;;;;30.62;33.22;100228.53;1880262;76;21630;-64
2022/06/13 07:19:34;;;;;;;2.90;1.32;;;;;;;30.80;32.65;100223.86;1880132;76;21039;-69
2022/06/13 07:22:04;;;;;;;1.85;1.02;;;;;;;31.03;32.58;100227.61;1880256;76;21477;-66
2022/06/13 07:24:33;;;;;;;3.08;0.80;;;;;;;31.20;30.82;100227.22;1880354;76;21039;-65
2022/06/13 07:27:02;;;;;;;1.42;1.20;;;;;;;31.08;30.09;100227.84;1880420;76;21047;-66
2022/06/13 07:29:31;;;;;;;3.42;0.98;;;;;;;30.96;29.90;100230.84;1880289;76;21510;-66
2022/06/13 07:32:05;;;;;;;6.72;1.20;;;;;;;31.05;30.20;100239.64;1880252;76;21425;-65
2022/06/13 07:34:35;;;;;;;13.05;2.67;;;;;;;31.03;29.94;100226.25;1880254;76;21043;-65
2022/06/13 07:37:07;;;;;;;4.80;0.80;;;;;;;31.24;30.46;100221.67;1880370;76;21011;-66
2022/06/13 07:39:36;;;;;;;5.45;1.60;;;;;;;31.42;30.16;100221.88;1880365;75;21545;-65
2022/06/13 07:42:06;;;;;;;4.50;1.02;;;;;;;31.59;30.08;100221.49;1880247;76;21117;-64
2022/06/13 07:44:39;;;;;;;2.40;1.07;;;;;;;31.89;30.04;100229.52;1880410;76;21017;-64
2022/06/13 07:47:09;;;;;;;2.58;1.02;;;;;;;32.02;28.64;100231.88;1883607;76;21070;-64
2022/06/13 07:49:38;;;;;;;0.90;0.70;;;;;;;32.07;28.34;100232.11;1889252;76;21426;-65
2022/06/13 07:52:07;;;;;;;5.65;0.68;;;;;;;32.17;28.18;100242.05;1889143;76;21462;-66
2022/06/13 07:54:36;;;;;;;3.90;1.00;;;;;;;32.25;27.96;100229.54;1889215;76;21042;-69
2022/06/13 07:57:05;;;;;;;7.10;1.42;;;;;;;32.26;27.53;100233.09;1889241;76;21034;-68
2022/06/13 07:59:34;;;;;;;5.90;1.17;;;;;;;32.24;27.64;100227.89;1889223;76;21101;-64
2022/06/13 08:02:03;;;;;;;3.37;1.30;;;;;;;32.28;27.42;100228.30;1889266;76;21116;-63
2022/06/13 08:04:32;;;;;;;4.22;1.00;;;;;;;32.42;28.08;100227.70;1889195;76;21035;-67
2022/06/13 08:07:00;;;;;;;3.83;0.90;;;;;;;32.58;27.10;100225.05;1889224;76;21081;-65
2022/06/13 08:09:29;;;;;;;6.00;0.90;;;;;;;32.58;26.86;100229.14;1889220;76;21042;-66
2022/06/13 08:11:57;;;;;;;2.80;1.05;;;;;;;32.65;26.51;100229.41;1889116;76;21494;-66
2022/06/13 08:14:26;;;;;;;4.85;1.22;;;;;;;32.91;26.85;100228.95;1889169;76;21109;-66
2022/06/13 08:16:55;;;;;;;5.97;1.20;;;;;;;33.27;27.13;100224.73;1889237;76;21050;-66
2022/06/13 08:19:24;;;;;;;2.50;1.00;;;;;;;33.68;27.18;100142.84;1888885;75;21611;-66
2022/06/13 08:21:52;;;;;;;4.03;1.07;;;;;;;34.06;24.81;100220.13;1889223;76;21104;-65
2022/06/13 08:24:21;;;;;;;2.35;1.25;;;;;;;34.06;24.81;100220.13;1889182;76;21042;-64
2022/06/13 08:26:49;;;;;;;9.75;1.52;;;;;;;34.00;24.30;100227.34;1889210;76;21050;-64
2022/06/13 08:29:18;;;;;;;4.47;1.80;;;;;;;33.67;24.22;100217.59;1889186;76;21109;-66
2022/06/13 08:31:47;;;;;;;2.33;0.88;;;;;;;33.72;24.50;100222.39;1880587;75;21132;-64
2022/06/13 08:34:15;;;;;;;2.12;0.80;;;;;;;34.06;24.68;100236.52;1884733;76;21046;-61
2022/06/13 08:36:44;;;;;;;2.20;0.60;;;;;;;33.99;23.75;100232.48;1882496;76;21116;-70
2022/06/13 08:39:13;;;;;;;4.00;0.60;;;;;;;33.57;22.89;100226.78;1857330;77;21018;-64
2022/06/13 08:41:47;;;;;;;2.83;0.90;;;;;;;33.29;23.60;100229.42;1857225;77;21492;-66
2022/06/13 08:44:19;;;;;;;2.87;1.05;;;;;;;33.27;23.51;100213.81;1857211;75;21153;-64
2022/06/13 08:47:27;;;;;;;6.10;1.20;;;;;;;33.38;23.97;100229.45;1857207;77;21042;-64
2022/06/13 08:50:03;;;;;;;1.10;0.85;;;;;;;33.49;22.98;100222.44;1837272;77;21018;-64
2022/06/13 08:52:35;;;;;;;6.00;0.93;;;;;;;33.39;23.30;100218.04;1849076;77;21041;-65
2022/06/13 08:55:26;;;;;;;6.95;1.60;;;;;;;33.40;23.37;100212.36;1848614;77;21022;-63
2022/06/13 08:58:16;;;;;;;6.17;0.85;;;;;;;33.60;23.50;100215.42;1849178;77;21154;-65
2022/06/13 09:00:53;;;;;;;10.08;0.88;;;;;;;33.67;22.73;100215.41;1848639;76;21504;-65
2022/06/13 09:03:31;;;;;;;2.80;0.90;;;;;;;33.55;22.64;100213.89;1845469;76;21101;-62
2022/06/13 09:06:05;;;;;;;10.25;1.40;;;;;;;33.54;22.67;100210.33;1849248;77;21115;-62
2022/06/13 09:08:40;;;;;;;3.00;1.35;;;;;;;33.54;22.66;100215.79;1848192;77;21194;-62
2022/06/13 09:11:36;;;;;;;4.30;1.45;;;;;;;33.59;22.54;100208.31;1849233;77;21108;-62
2022/06/13 09:14:10;;;;;;;3.20;1.10;;;;;;;33.73;22.98;100209.86;1849164;77;21484;-62
2022/06/13 09:16:44;;;;;;;3.45;0.90;;;;;;;33.88;22.82;100156.78;1847989;77;21602;-61
2022/06/13 09:19:27;;;;;;;2.05;0.78;;;;;;;34.14;22.49;100200.19;1849304;77;21085;-62
2022/06/13 09:22:21;;;;;;;3.47;1.20;;;;;;;34.19;22.29;100203.61;1849063;76;21045;-62
2022/06/13 09:25:05;;;;;;;1.60;1.02;;;;;;;33.85;22.62;100203.97;1848629;76;21313;-63
2022/06/13 09:27:54;;;;;;;;;;;;;;;;;;;;;
2022/06/13 09:30:44;;;;;;;5.97;1.12;;;;;;;33.16;24.22;100196.27;1818851;77;21218;-64
2022/06/13 09:33:32;;;;;;;6.75;1.30;;;;;;;32.73;23.99;100212.49;1818588;79;21081;-62
2022/06/13 09:36:13;;;;;;;6.62;1.32;;;;;;;32.21;24.30;100201.07;1819012;78;21104;-60
2022/06/13 09:39:01;;;;;;;5.45;1.02;;;;;;;32.03;24.95;100199.03;1848618;75;21586;-63
2022/06/13 09:42:07;;;;;;;7.05;1.00;;;;;;;32.00;25.25;100212.20;1848914;76;21081;-67
2022/06/13 09:45:04;;;;;;;7.75;1.37;;;;;;;31.85;25.50;100205.11;1793549;76;21064;-63
2022/06/13 09:47:48;;;;;;;3.85;1.20;;;;;;;31.91;26.14;100206.17;1848543;76;21091;-61
2022/06/13 09:50:22;;;;;;;7.70;1.20;;;;;;;31.99;26.17;100207.82;1817452;78;21042;-61
2022/06/13 09:53:28;;;;;;;3.02;0.85;;;;;;;32.02;26.06;100208.73;1817100;79;21125;-63
2022/06/13 09:56:00;;;;;;;3.83;1.50;;;;;;;32.17;26.15;100210.73;1835118;77;21103;-65
2022/06/13 09:58:50;;;;;;;3.52;0.93;;;;;;;32.39;26.18;100218.08;1848990;77;21115;-65
2022/06/13 10:01:22;;;;;;;14.68;2.58;;;;;;;32.40;25.50;100214.82;1849112;77;21578;-66
2022/06/13 10:03:54;;;;;;;4.93;1.90;;;;;;;32.23;24.55;100213.11;1780067;79;21062;-63
2022/06/13 10:06:45;;;;;;;6.90;1.47;;;;;;;32.02;24.41;100210.09;1873622;75;21052;-64
2022/06/13 10:09:20;;;;;;;4.12;1.52;;;;;;;31.88;24.69;100208.77;1888245;76;21562;-63
2022/06/13 10:12:04;;;;;;;1.55;1.20;;;;;;;31.83;24.76;100204.48;1888162;76;21020;-61
2022/06/13 10:14:41;;;;;;;3.55;1.32;;;;;;;31.87;24.59;100212.56;1888153;76;21600;-61
2022/06/13 10:17:30;;;;;;;2.02;1.00;;;;;;;31.78;23.77;100211.12;1887471;75;21048;-61
2022/06/13 10:20:11;;;;;;;4.60;1.40;;;;;;;31.55;24.03;100208.30;1887596;76;21471;-61
2022/06/13 10:22:45;;;;;;;4.15;1.05;;;;;;;31.50;24.61;100207.26;1888197;76;21048;-61
2022/06/13 10:25:29;;;;;;;1.62;0.98;;;;;;;31.51;25.12;100206.23;1885772;74;21048;-61
2022/06/13 10:28:36;;;;;;;4.28;1.70;;;;;;;31.58;25.47;100210.28;1864993;74;21496;-63
2022/06/13 10:31:19;;;;;;;6.42;1.62;;;;;;;31.75;26.01;100204.73;1888262;75;21504;-59
2022/06/13 10:33:56;;;;;;;2.67;1.30;;;;;;;32.02;26.06;100198.70;1856363;77;21125;-60
2022/06/13 10:36:31;;;;;;;2.37;0.88;;;;;;;32.18;26.38;100197.94;1856313;77;21063;-60
2022/06/13 10:39:08;;;;;;;5.72;1.00;;;;;;;32.10;26.31;100196.30;1856118;77;21056;-59
2022/06/13 10:41:43;;;;;;;3.37;0.90;;;;;;;31.92;25.86;100203.74;1856326;77;21052;-59
2022/06/13 10:44:14;;;;;;;2.60;0.60;;;;;;;31.76;25.44;100203.66;1856295;77;21032;-59
2022/06/13 10:46:49;;;;;;;2.47;1.00;;;;;;;31.61;25.77;100196.27;1856598;77;21055;-60
2022/06/13 10:49:20;;;;;;;8.15;1.65;;;;;;;31.46;26.31;100201.37;1869072;76;21545;-59
2022/06/13 10:51:49;;;;;;;2.52;1.15;;;;;;;31.39;26.72;100197.81;1885980;76;21079;-63
2022/06/13 10:54:24;;;;;;;1.62;0.85;;;;;;;31.31;26.94;100201.59;1865840;77;21501;-63
2022/06/13 10:57:04;;;;;;;3.58;1.30;;;;;;;31.25;26.93;100198.88;1867542;75;21168;-64
2022/06/13 10:59:36;;;;;;;2.75;1.12;;;;;;;31.22;27.22;100198.76;1886243;75;21530;-62
2022/06/13 11:02:19;;;;;;;9.70;1.47;;;;;;;31.21;26.86;100200.32;1898263;75;21099;-62
2022/06/13 11:04:51;;;;;;;5.50;1.77;;;;;;;31.27;27.12;100200.87;1898203;75;21040;-62
2022/06/13 11:07:20;;;;;;;11.18;1.37;;;;;;;31.36;27.38;100185.48;1893919;75;21011;-61
2022/06/13 11:09:57;;;;;;;2.30;0.78;;;;;;;31.41;27.62;100190.80;1898317;75;21490;-61
2022/06/13 11:12:32;;;;;;;10.93;2.35;;;;;;;31.45;27.54;100199.71;1898140;75;21011;-62
2022/06/13 11:23:52;;;;;;;2.40;0.70;;;;;;;31.41;27.44;100194.88;1888056;75;21220;-62
2022/06/13 11:29:17;;;;;;;2.72;1.40;;;;;;;31.12;27.71;100189.66;1898193;75;21027;-62
2022/06/13 11:31:52;;;;;;;5.72;1.50;;;;;;;30.89;27.51;100186.46;1898233;75;21051;-61
2022/06/13 11:34:26;;;;;;;9.00;1.60;;;;;;;30.76;28.13;100189.46;1898234;75;21113;-61
2022/06/13 11:37:03;;;;;;;1.72;0.90;;;;;;;30.66;28.76;100193.11;1898200;75;21012;-62
2022/06/13 11:39:35;;;;;;;4.30;1.15;;;;;;;30.54;28.97;100192.02;1898353;75;21048;-61
2022/06/13 11:42:06;;;;;;;15.93;1.50;;;;;;;30.40;29.16;100181.12;1898269;75;21052;-59
2022/06/13 11:44:37;;;;;;;6.03;1.70;;;;;;;30.34;29.46;100191.45;1898223;75;21482;-57
2022/06/13 11:47:06;;;;;;;6.58;1.42;;;;;;;30.34;29.64;100184.66;1897492;75;21105;-57
2022/06/13 11:49:45;;;;;;;2.33;1.37;;;;;;;30.42;28.89;100180.92;1905964;74;21513;-62
2022/06/13 11:53:35;;;;;;;3.95;1.32;;;;;;;30.49;28.34;100185.86;1925853;74;21113;-61
2022/06/13 11:55:00;;;;;;;4.95;1.30;;;;;;;30.57;28.70;100182.95;1918841;74;21079;-65
2022/06/13 11:57:38;;;;;;;2.12;1.00;;;;;;;30.67;29.33;100181.72;1922677;73;21043;-62
2022/06/13 12:00:12;;;;;;;2.92;0.65;;;;;;;30.75;29.77;100183.73;1923380;71;21489;-61
2022/06/13 12:02:51;;;;;;;1.05;0.78;;;;;;;30.67;29.73;100183.91;1870616;74;21066;-62
2022/06/13 12:05:32;;;;;;;2.12;1.25;;;;;;;30.58;29.84;100171.55;1923961;74;21035;-60
2022/06/13 12:08:03;;;;;;;8.70;1.30;;;;;;;30.57;29.97;100176.69;1923805;74;21559;-60
2022/06/13 12:10:38;;;;;;;6.67;1.20;;;;;;;30.62;30.13;100170.13;1924169;74;21100;-62
2022/06/13 12:13:12;;;;;;;10.88;1.17;;;;;;;30.71;30.13;100168.89;1923830;74;21269;-61
2022/06/13 12:15:55;;;;;;;3.10;1.00;;;;;;;30.73;30.23;100177.66;1922714;71;21015;-61
2022/06/13 12:19:02;;;;;;;9.68;1.60;;;;;;;30.74;30.22;100169.81;1923833;74;21113;-61
2022/06/13 12:21:43;;;;;;;6.12;1.50;;;;;;;30.77;30.31;100164.51;1923915;74;21531;-61
2022/06/13 12:24:20;;;;;;;3.72;0.95;;;;;;;30.85;30.04;100171.09;1923837;74;21112;-61
2022/06/13 12:27:01;;;;;;;4.15;1.42;;;;;;;30.89;29.93;100162.00;1923803;74;21549;-61
2022/06/13 12:29:44;;;;;;;2.60;1.10;;;;;;;30.89;29.81;100162.00;1923761;74;21039;-60